Ru Kontio — OIRV — position and weather

sailwx.info

Track history (hours):
 
Tides and Currents Weather Stations Pressure Air Temp Water Temp Dewpoint Dewpoint Depression Visibility Wind Speed Wind Dir Waves Ship Positions

Ru Kontio

Last reported at 2015-Dec-30 03:20 UTC. Time now 2016-Apr-30 03:26 UTC.
Position N 59°59' E 021°42'.
Warning: this ship's position is months out of date.

Type: Other ship. MMSI: 230251000.

Date/timePositionNaut miles runAvg speedWind from/ knotsBaromVisibWave heightAir tempDewpointWater temp
2015-Dec-30 03:20N 59°59' E 021°42'1013.1
2015-Dec-30 02:33N 59°52' E 021°27'1211.8
2015-Dec-30 01:34N 59°40' E 021°22'1413.6
2015-Dec-30 00:33N 59°32' E 021°43'1413.6
2015-Dec-29 23:34N 59°33' E 022°09'2713.5
2015-Dec-29 21:33N 59°38' E 023°02'1313.5
2015-Dec-29 20:33N 59°41' E 023°28'1313.6
2015-Dec-29 19:33N 59°45' E 023°54'1413.5
2015-Dec-29 18:33N 59°49' E 024°19'  
Track history (hours):
 
Tides and Currents Weather Stations Pressure Air Temp Water Temp Dewpoint Dewpoint Depression Visibility Wind Speed Wind Dir Waves Ship Positions

Ru Kontio

Last reported at 2015-Dec-30 03:20 UTC. Time now 2016-Apr-30 03:26 UTC.
Position N 59°59' E 021°42'.
Warning: this ship's position is months out of date.

Type: Other ship. MMSI: 230251000.

Date/timePositionNaut miles runAvg speedWind from/ knotsBaromVisibWave heightAir tempDewpointWater temp
2015-Dec-30 03:20N 59°59' E 021°42'1013.1
2015-Dec-30 02:33N 59°52' E 021°27'1211.8
2015-Dec-30 01:34N 59°40' E 021°22'1413.6
2015-Dec-30 00:33N 59°32' E 021°43'1413.6
2015-Dec-29 23:34N 59°33' E 022°09'2713.5
2015-Dec-29 21:33N 59°38' E 023°02'1313.5
2015-Dec-29 20:33N 59°41' E 023°28'1313.6
2015-Dec-29 19:33N 59°45' E 023°54'1413.5
2015-Dec-29 18:33N 59°49' E 024°19'  

Dump ship's entire track history